createdAt,value
2022-10-11T00:02:11.922Z,1.30
2022-10-11T00:04:56.982Z,1.50
2022-10-11T00:07:42.484Z,1.02
2022-10-11T00:10:27.620Z,1.10
2022-10-11T00:13:12.581Z,0.90
2022-10-11T00:15:58.048Z,0.70
2022-10-11T00:18:42.928Z,1.37
2022-10-11T00:21:27.986Z,1.30
2022-10-11T00:24:13.619Z,1.35
2022-10-11T00:26:58.796Z,0.90
2022-10-11T00:29:43.862Z,0.82
2022-10-11T00:32:29.015Z,1.20
2022-10-11T00:35:14.981Z,1.00
2022-10-11T00:37:59.993Z,1.33
2022-10-11T00:40:45.831Z,0.85
2022-10-11T00:43:32.236Z,1.33
2022-10-11T00:46:26.970Z,0.93
2022-10-11T00:49:25.463Z,1.52
2022-10-11T00:52:32.994Z,0.85
2022-10-11T00:55:20.621Z,1.20
2022-10-11T00:58:06.497Z,1.23
2022-10-11T01:00:52.041Z,0.90
2022-10-11T01:03:38.514Z,1.30
2022-10-11T01:06:23.376Z,1.17
2022-10-11T01:09:09.769Z,0.80
2022-10-11T01:11:57.960Z,1.17
2022-10-11T01:15:07.028Z,0.90
2022-10-11T01:18:03.395Z,1.17
2022-10-11T01:21:01.554Z,1.38
2022-10-11T01:24:07.492Z,1.00
2022-10-11T01:27:18.516Z,1.17
2022-10-11T01:30:07.170Z,0.90
2022-10-11T01:33:29.982Z,1.25
2022-10-11T01:36:31.236Z,0.80
2022-10-11T01:39:23.991Z,1.25
2022-10-11T01:42:12.228Z,1.92
2022-10-11T01:44:59.227Z,1.30
2022-10-11T01:47:45.865Z,1.20
2022-10-11T01:50:45.051Z,1.17
2022-10-11T01:53:48.442Z,0.90
2022-10-11T01:57:14.391Z,0.93
2022-10-11T02:00:12.627Z,1.13
2022-10-11T02:03:07.068Z,1.33
2022-10-11T02:06:03.931Z,1.10
2022-10-11T02:09:08.322Z,1.67
2022-10-11T02:11:57.994Z,0.85
2022-10-11T02:14:46.916Z,1.20
2022-10-11T02:17:37.104Z,1.27
2022-10-11T02:20:25.738Z,1.30
2022-10-11T02:23:15.171Z,1.25
2022-10-11T02:26:04.313Z,2.00
2022-10-11T02:28:51.525Z,1.30
2022-10-11T02:31:37.994Z,1.52
2022-10-11T02:34:40.723Z,1.40
2022-10-11T02:37:58.185Z,1.50
2022-10-11T02:40:47.665Z,1.38
2022-10-11T02:43:36.496Z,1.60
2022-10-11T02:46:22.071Z,1.40
2022-10-11T02:49:08.296Z,1.65
2022-10-11T02:51:55.786Z,1.83
2022-10-11T02:54:41.012Z,1.80
2022-10-11T02:57:25.930Z,2.00
2022-10-11T03:00:11.774Z,1.58
2022-10-11T03:02:56.671Z,1.67
2022-10-11T03:05:42.047Z,1.90
2022-10-11T03:08:27.923Z,2.17
2022-10-11T03:11:12.906Z,1.57
2022-10-11T03:13:58.068Z,1.60
2022-10-11T03:16:43.183Z,1.88
2022-10-11T03:19:28.031Z,2.15
2022-10-11T03:22:13.179Z,2.08
2022-10-11T03:25:03.388Z,2.20
2022-10-11T03:27:48.906Z,2.28
2022-10-11T03:30:34.060Z,2.35
2022-10-11T03:33:18.984Z,2.40
2022-10-11T03:36:04.614Z,2.38
2022-10-11T03:38:49.655Z,2.30
2022-10-11T03:41:34.716Z,1.98
2022-10-11T03:44:19.603Z,2.17
2022-10-11T03:47:05.387Z,2.50
2022-10-11T03:49:50.184Z,2.15
2022-10-11T03:52:36.043Z,2.17
2022-10-11T03:55:21.178Z,2.83
2022-10-11T03:58:06.428Z,2.35
2022-10-11T04:00:52.651Z,2.80
2022-10-11T04:03:37.863Z,3.20
2022-10-11T04:06:23.313Z,3.27
2022-10-11T04:09:08.163Z,2.83
2022-10-11T04:11:53.206Z,3.50
2022-10-11T04:14:38.282Z,3.30
2022-10-11T04:17:23.246Z,3.20
2022-10-11T04:20:08.955Z,2.50
2022-10-11T04:22:53.866Z,2.72
2022-10-11T04:25:39.554Z,2.85
2022-10-11T04:28:24.702Z,2.88
2022-10-11T04:31:09.559Z,2.70
2022-10-11T04:33:54.606Z,2.67
2022-10-11T04:36:39.860Z,2.50
2022-10-11T04:39:24.774Z,3.20
2022-10-11T04:42:10.495Z,4.03
2022-10-11T04:44:55.700Z,3.40
2022-10-11T04:47:41.489Z,3.53
2022-10-11T04:50:26.575Z,3.20
2022-10-11T04:53:11.619Z,3.03
2022-10-11T04:56:02.246Z,3.47
2022-10-11T04:58:53.944Z,3.63
2022-10-11T05:01:39.075Z,3.33
2022-10-11T05:04:23.780Z,3.33
2022-10-11T05:07:08.812Z,3.20
2022-10-11T05:09:54.504Z,3.17
2022-10-11T05:12:39.470Z,2.72
2022-10-11T05:15:24.319Z,2.93
2022-10-11T05:18:09.336Z,2.85
2022-10-11T05:21:03.192Z,3.00
2022-10-11T05:23:49.586Z,2.75
2022-10-11T05:26:34.464Z,3.22
2022-10-11T05:29:19.783Z,2.83
2022-10-11T05:32:05.195Z,3.35
2022-10-11T05:34:50.110Z,2.95
2022-10-11T05:37:35.238Z,2.72
2022-10-11T05:40:20.046Z,3.03
2022-10-11T05:43:05.912Z,2.83
2022-10-11T05:45:50.613Z,3.10
2022-10-11T05:48:36.170Z,3.13
2022-10-11T05:51:21.263Z,2.83
2022-10-11T05:54:06.377Z,3.42
2022-10-11T05:56:51.526Z,3.17
2022-10-11T05:59:36.546Z,3.15
2022-10-11T06:02:21.355Z,2.85
2022-10-11T06:05:06.455Z,3.20
2022-10-11T06:07:51.514Z,3.50
2022-10-11T06:10:38.214Z,3.07
2022-10-11T06:13:23.157Z,3.28
2022-10-11T06:16:08.889Z,3.28
2022-10-11T06:18:54.668Z,3.13
2022-10-11T06:21:39.415Z,3.42
2022-10-11T06:24:24.240Z,3.60
2022-10-11T06:27:09.796Z,3.70
2022-10-11T06:29:54.751Z,3.60
2022-10-11T06:32:39.684Z,3.67
2022-10-11T06:35:24.682Z,4.18
2022-10-11T06:38:09.682Z,4.00
2022-10-11T06:40:54.817Z,4.10
2022-10-11T06:43:39.868Z,4.10
2022-10-11T06:46:27.134Z,4.00
2022-10-11T06:49:12.453Z,3.10
2022-10-11T06:51:57.651Z,3.40
2022-10-11T06:54:44.988Z,3.95
2022-10-11T06:57:30.353Z,3.83
2022-10-11T07:00:15.984Z,3.70
2022-10-11T07:03:01.277Z,3.75
2022-10-11T07:05:46.240Z,4.00
2022-10-11T07:08:31.652Z,3.65
2022-10-11T07:11:19.576Z,4.00
2022-10-11T07:14:07.673Z,3.50
2022-10-11T07:16:52.768Z,4.60
2022-10-11T07:19:37.787Z,3.63
2022-10-11T07:22:23.301Z,4.25
2022-10-11T07:25:08.763Z,4.32
2022-10-11T07:27:53.432Z,4.30
2022-10-11T07:30:40.151Z,4.57
2022-10-11T07:33:25.182Z,4.47
2022-10-11T07:36:11.220Z,5.15
2022-10-11T07:38:56.308Z,5.65
2022-10-11T07:41:45.599Z,5.50
2022-10-11T07:44:31.071Z,6.32
2022-10-11T07:47:15.974Z,6.10
2022-10-11T07:50:01.035Z,6.80
2022-10-11T07:52:46.196Z,7.13
2022-10-11T07:55:34.603Z,6.85
2022-10-11T07:58:19.859Z,7.25
2022-10-11T08:01:05.276Z,6.33
2022-10-11T08:03:50.960Z,7.43
2022-10-11T08:06:36.516Z,6.47
2022-10-11T08:09:21.407Z,7.38
2022-10-11T08:12:06.579Z,7.55
2022-10-11T08:14:54.920Z,7.87
2022-10-11T08:17:39.904Z,8.52
2022-10-11T08:20:24.871Z,7.75
2022-10-11T08:23:10.043Z,8.07
2022-10-11T08:25:57.093Z,7.80
2022-10-11T08:28:42.098Z,7.73
2022-10-11T08:31:27.397Z,7.88
2022-10-11T08:34:12.890Z,7.93
2022-10-11T08:36:58.079Z,8.75
2022-10-11T08:39:43.206Z,8.18
2022-10-11T08:42:34.363Z,10.17
2022-10-11T08:45:40.902Z,9.55
2022-10-11T08:48:50.805Z,8.85
2022-10-11T08:51:42.895Z,10.18
2022-10-11T08:54:49.324Z,9.90
2022-10-11T08:57:37.293Z,9.60
2022-10-11T09:00:23.602Z,9.73
2022-10-11T09:03:24.449Z,11.68
2022-10-11T09:06:29.566Z,10.23
2022-10-11T09:09:36.272Z,11.05
2022-10-11T09:12:48.213Z,9.73
2022-10-11T09:15:48.431Z,10.40
2022-10-11T09:18:47.395Z,11.10
2022-10-11T09:21:46.620Z,8.98
2022-10-11T09:24:55.708Z,9.77
2022-10-11T09:28:03.826Z,9.50
2022-10-11T09:30:52.515Z,9.68
2022-10-11T09:33:47.581Z,9.93
2022-10-11T09:36:54.015Z,9.52
2022-10-11T09:39:49.721Z,9.70
2022-10-11T09:42:34.402Z,10.60
2022-10-11T09:45:21.426Z,10.65
2022-10-11T09:48:07.425Z,10.70
2022-10-11T09:50:56.815Z,11.98
2022-10-11T09:54:03.450Z,12.23
2022-10-11T09:56:48.546Z,10.93
2022-10-11T09:59:35.056Z,10.35
2022-10-11T10:02:22.991Z,9.73
2022-10-11T10:05:10.732Z,10.25
2022-10-11T10:08:05.396Z,10.68
2022-10-11T10:10:59.431Z,9.77
2022-10-11T10:13:52.048Z,9.52
2022-10-11T10:16:37.136Z,10.98
2022-10-11T10:19:23.209Z,10.75
2022-10-11T10:22:18.656Z,10.57
2022-10-11T10:25:07.962Z,10.10
2022-10-11T10:27:58.502Z,10.05
2022-10-11T10:30:54.212Z,10.30
2022-10-11T10:33:39.443Z,9.43
2022-10-11T10:36:34.296Z,9.77
2022-10-11T10:39:30.867Z,8.87
2022-10-11T10:42:19.916Z,9.80
2022-10-11T10:45:12.217Z,9.82
2022-10-11T10:48:15.171Z,9.02
2022-10-11T10:51:11.208Z,9.85
2022-10-11T10:54:25.275Z,9.73
2022-10-11T10:57:17.800Z,9.73
2022-10-11T11:00:16.172Z,8.63
2022-10-11T11:03:15.460Z,9.80
2022-10-11T11:06:09.911Z,9.20
2022-10-11T11:09:05.553Z,8.90
2022-10-11T11:12:09.971Z,8.77
2022-10-11T11:15:01.562Z,8.82
2022-10-11T11:18:07.811Z,7.97
2022-10-11T11:21:15.010Z,7.88
2022-10-11T11:24:16.877Z,8.50
2022-10-11T11:27:09.994Z,7.72
2022-10-11T11:30:36.474Z,8.23
2022-10-11T11:33:38.047Z,7.47
2022-10-11T11:36:40.279Z,7.50
2022-10-11T11:39:26.987Z,8.30
2022-10-11T11:42:17.981Z,6.53
2022-10-11T11:45:15.121Z,6.55
2022-10-11T11:48:03.661Z,5.78
2022-10-11T11:51:07.943Z,6.22
2022-10-11T11:54:29.459Z,6.90
2022-10-11T11:57:35.335Z,6.97
2022-10-11T12:00:27.442Z,5.82
2022-10-11T12:03:20.541Z,6.28
2022-10-11T12:06:14.617Z,6.72
2022-10-11T12:09:07.751Z,7.03
2022-10-11T12:11:59.054Z,6.63
2022-10-11T12:14:44.081Z,6.90
2022-10-11T12:17:28.975Z,6.00
2022-10-11T12:20:26.028Z,3.90
2022-10-11T12:23:29.148Z,3.67
2022-10-11T12:26:32.983Z,2.53
2022-10-11T12:29:36.562Z,3.33
2022-10-11T12:32:27.596Z,2.75
2022-10-11T12:35:31.129Z,3.20
2022-10-11T12:38:33.642Z,2.53
2022-10-11T12:41:18.595Z,2.80
2022-10-11T12:44:22.597Z,2.72
2022-10-11T12:47:39.571Z,2.45
2022-10-11T12:51:03.602Z,3.03
2022-10-11T12:54:25.930Z,2.97
2022-10-11T12:57:46.207Z,3.35
2022-10-11T13:00:41.451Z,3.40
2022-10-11T13:03:57.448Z,3.47
2022-10-11T13:06:48.699Z,3.53
2022-10-11T13:09:39.042Z,3.33
2022-10-11T13:12:26.654Z,3.72
2022-10-11T13:15:16.284Z,3.10
2022-10-11T13:18:02.173Z,3.05
2022-10-11T13:20:47.173Z,2.95
2022-10-11T13:23:40.039Z,2.60
2022-10-11T13:26:27.628Z,3.00
2022-10-11T13:29:23.270Z,3.15
2022-10-11T13:32:14.621Z,2.05
2022-10-11T13:35:14.556Z,2.40
2022-10-11T13:38:00.151Z,2.33
2022-10-11T13:40:50.053Z,2.45
2022-10-11T13:43:36.940Z,1.88
2022-10-11T13:46:26.876Z,2.10
2022-10-11T13:49:39.991Z,2.10
2022-10-11T13:52:25.375Z,2.70
2022-10-11T13:55:29.004Z,2.30
2022-10-11T13:58:23.486Z,2.28
2022-10-11T14:01:22.222Z,2.53
2022-10-11T14:04:11.713Z,2.55
2022-10-11T14:07:02.356Z,1.83
2022-10-11T14:09:48.676Z,2.03
2022-10-11T14:12:39.520Z,2.20
2022-10-11T14:15:28.312Z,2.03
2022-10-11T14:18:33.449Z,2.22
2022-10-11T14:21:30.811Z,2.38
2022-10-11T14:24:17.695Z,1.95
2022-10-11T14:27:05.705Z,1.80
2022-10-11T14:30:19.866Z,2.50
2022-10-11T14:32:59.263Z,2.10
2022-10-11T14:35:44.251Z,2.15
2022-10-11T14:38:29.475Z,2.20
2022-10-11T14:41:14.258Z,2.13
2022-10-11T14:43:59.329Z,2.10
2022-10-11T14:46:46.095Z,2.05
2022-10-11T14:49:33.617Z,1.80
2022-10-11T14:52:19.578Z,1.65
2022-10-11T14:55:04.761Z,2.00
2022-10-11T14:57:50.325Z,2.05
2022-10-11T15:00:36.465Z,2.05
2022-10-11T15:03:21.523Z,1.73
2022-10-11T15:06:21.290Z,1.83
2022-10-11T15:09:07.273Z,1.77
2022-10-11T15:11:54.633Z,1.50
2022-10-11T15:14:39.811Z,2.10
2022-10-11T15:17:24.709Z,2.08
2022-10-11T15:20:27.304Z,1.90
2022-10-11T15:23:12.520Z,1.50
2022-10-11T15:25:57.608Z,1.65
2022-10-11T15:28:43.677Z,1.55
2022-10-11T15:31:28.750Z,1.60
2022-10-11T15:34:14.666Z,1.80
2022-10-11T15:36:59.879Z,2.13
2022-10-11T15:39:44.859Z,1.85
2022-10-11T15:42:29.817Z,1.88
2022-10-11T15:45:16.263Z,1.73
2022-10-11T15:48:01.248Z,1.60
2022-10-11T15:50:46.349Z,1.50
2022-10-11T15:53:32.162Z,1.67
2022-10-11T15:56:18.780Z,1.98
2022-10-11T15:59:03.852Z,1.92
2022-10-11T16:01:48.756Z,1.80
2022-10-11T16:04:33.570Z,1.90
2022-10-11T16:07:18.836Z,3.00
2022-10-11T16:10:04.983Z,4.95
2022-10-11T16:12:50.135Z,5.85
2022-10-11T16:15:40.629Z,4.18
2022-10-11T16:18:25.552Z,3.67
2022-10-11T16:21:12.844Z,3.72
2022-10-11T16:23:57.902Z,3.40
2022-10-11T16:26:43.827Z,2.50
2022-10-11T16:29:28.982Z,2.10
2022-10-11T16:32:14.122Z,2.10
2022-10-11T16:34:59.114Z,2.75
2022-10-11T16:37:44.794Z,3.28
2022-10-11T16:40:30.027Z,2.85
2022-10-11T16:43:15.288Z,3.47
2022-10-11T16:46:00.373Z,4.53
2022-10-11T16:48:45.497Z,4.72
2022-10-11T16:51:30.513Z,5.22
2022-10-11T16:54:20.569Z,5.07
2022-10-11T16:57:05.797Z,4.65
2022-10-11T16:59:50.951Z,3.87
2022-10-11T17:02:36.543Z,4.05
2022-10-11T17:05:21.500Z,3.60
2022-10-11T17:08:06.464Z,3.15
2022-10-11T17:10:57.741Z,3.33
2022-10-11T17:13:44.068Z,2.97
2022-10-11T17:16:29.119Z,3.58
2022-10-11T17:19:15.490Z,4.03
2022-10-11T17:22:00.632Z,3.55
2022-10-11T17:24:45.939Z,5.10
2022-10-11T17:27:31.130Z,3.80
2022-10-11T17:30:15.985Z,4.22
2022-10-11T17:33:00.844Z,4.40
2022-10-11T17:35:46.067Z,4.10
2022-10-11T17:38:30.879Z,4.00
2022-10-11T17:41:16.681Z,3.60
2022-10-11T17:44:02.883Z,3.10
2022-10-11T17:46:48.594Z,2.90
2022-10-11T17:49:33.919Z,3.08
2022-10-11T17:52:19.228Z,3.28
2022-10-11T17:55:05.597Z,3.60
2022-10-11T17:57:50.861Z,3.50
2022-10-11T18:00:36.876Z,3.17
2022-10-11T18:03:21.797Z,3.30
2022-10-11T18:06:09.624Z,3.42
2022-10-11T18:08:55.770Z,3.37
2022-10-11T18:11:40.861Z,3.60
2022-10-11T18:14:25.613Z,3.70
2022-10-11T18:17:10.969Z,3.75
2022-10-11T18:19:56.434Z,4.03
2022-10-11T18:22:42.609Z,4.50
2022-10-11T18:25:27.452Z,3.80
2022-10-11T18:28:12.577Z,3.97
2022-10-11T18:30:58.872Z,3.53
2022-10-11T18:33:45.901Z,4.13
2022-10-11T18:36:31.738Z,4.50
2022-10-11T18:39:17.042Z,3.88
2022-10-11T18:42:04.478Z,4.40
2022-10-11T18:44:49.283Z,4.88
2022-10-11T18:47:34.602Z,4.57
2022-10-11T18:50:20.599Z,4.03
2022-10-11T18:53:06.791Z,4.20
2022-10-11T18:55:57.933Z,4.15
2022-10-11T18:58:45.601Z,4.00
2022-10-11T19:01:33.494Z,3.70
2022-10-11T19:04:19.041Z,3.97
2022-10-11T19:07:04.739Z,3.80
2022-10-11T19:09:49.947Z,3.50
2022-10-11T19:12:35.060Z,4.10
2022-10-11T19:15:19.928Z,3.40
2022-10-11T19:18:05.312Z,3.53
2022-10-11T19:20:50.206Z,3.45
2022-10-11T19:23:42.206Z,3.55
2022-10-11T19:26:31.191Z,3.20
2022-10-11T19:29:21.067Z,3.40
2022-10-11T19:32:06.044Z,3.10
2022-10-11T19:34:51.192Z,3.55
2022-10-11T19:37:36.264Z,3.40
2022-10-11T19:40:21.594Z,3.63
2022-10-11T19:43:06.921Z,4.03
2022-10-11T19:45:58.635Z,3.53
2022-10-11T19:48:44.498Z,3.90
2022-10-11T19:51:34.724Z,3.95
2022-10-11T19:54:19.976Z,3.47
2022-10-11T19:57:05.154Z,3.72
2022-10-11T19:59:50.007Z,3.77
2022-10-11T20:02:34.824Z,3.50
2022-10-11T20:05:19.842Z,3.70
2022-10-11T20:08:05.022Z,3.70
2022-10-11T20:10:53.324Z,3.80
2022-10-11T20:13:39.694Z,3.73
2022-10-11T20:16:27.097Z,4.68
2022-10-11T20:19:11.800Z,4.75
2022-10-11T20:22:00.597Z,4.35
2022-10-11T20:24:45.800Z,3.95
2022-10-11T20:27:31.567Z,4.33
2022-10-11T20:30:17.150Z,4.00
2022-10-11T20:33:02.631Z,4.30
2022-10-11T20:36:04.049Z,4.03
2022-10-11T20:38:50.401Z,4.00
2022-10-11T20:41:39.669Z,3.40
2022-10-11T20:44:24.739Z,4.60
2022-10-11T20:47:09.831Z,4.80
2022-10-11T20:49:54.646Z,4.60
2022-10-11T20:52:39.846Z,5.75
2022-10-11T20:55:24.751Z,5.20
2022-10-11T20:58:09.864Z,4.68
2022-10-11T21:00:55.083Z,4.15
2022-10-11T21:03:41.068Z,3.95
2022-10-11T21:06:28.120Z,3.70
2022-10-11T21:09:15.613Z,3.60
2022-10-11T21:12:02.048Z,3.85
2022-10-11T21:14:47.237Z,4.50
2022-10-11T21:17:32.015Z,4.03
2022-10-11T21:20:17.844Z,3.83
2022-10-11T21:23:02.585Z,3.67
2022-10-11T21:25:47.597Z,4.00
2022-10-11T21:28:32.900Z,4.13
2022-10-11T21:31:19.624Z,4.70
2022-10-11T21:34:06.600Z,3.55
2022-10-11T21:36:51.791Z,3.60
2022-10-11T21:39:36.911Z,3.95
2022-10-11T21:42:25.884Z,4.00
2022-10-11T21:45:13.649Z,3.50
2022-10-11T21:47:58.656Z,4.15
2022-10-11T21:50:43.844Z,3.80
2022-10-11T21:53:28.642Z,3.90
2022-10-11T21:56:13.787Z,3.90
2022-10-11T21:58:58.903Z,4.10
2022-10-11T22:01:44.201Z,3.95
2022-10-11T22:04:29.128Z,4.03
2022-10-11T22:07:14.082Z,3.55
2022-10-11T22:09:59.257Z,4.18
2022-10-11T22:12:44.556Z,3.55
2022-10-11T22:15:33.639Z,3.67
2022-10-11T22:18:19.054Z,3.37
2022-10-11T22:21:13.240Z,4.00
2022-10-11T22:23:58.082Z,4.05
2022-10-11T22:26:43.258Z,4.05
2022-10-11T22:29:33.184Z,4.40
2022-10-11T22:32:19.190Z,4.10
2022-10-11T22:35:04.567Z,4.72
2022-10-11T22:37:52.421Z,4.63
2022-10-11T22:40:39.916Z,4.20
2022-10-11T22:43:24.923Z,4.15
2022-10-11T22:46:10.131Z,4.47
2022-10-11T22:48:55.100Z,4.85
2022-10-11T22:51:40.273Z,4.78
2022-10-11T22:54:24.950Z,4.60
2022-10-11T22:57:10.237Z,4.10
2022-10-11T22:59:55.203Z,4.10
2022-10-11T23:02:40.242Z,3.95
2022-10-11T23:05:25.196Z,4.13
2022-10-11T23:08:10.378Z,4.20
2022-10-11T23:10:55.496Z,3.40
2022-10-11T23:13:40.508Z,3.47
2022-10-11T23:16:25.411Z,3.45
2022-10-11T23:19:10.420Z,3.90
2022-10-11T23:21:55.532Z,3.65
2022-10-11T23:24:40.512Z,3.28
2022-10-11T23:27:25.322Z,3.83
2022-10-11T23:30:11.587Z,3.63
2022-10-11T23:32:56.615Z,3.13
2022-10-11T23:35:41.846Z,3.30
2022-10-11T23:38:26.598Z,3.38
2022-10-11T23:41:11.768Z,3.70
2022-10-11T23:43:57.906Z,3.17
2022-10-11T23:46:42.993Z,3.63
2022-10-11T23:49:27.892Z,3.08
2022-10-11T23:52:13.177Z,3.13
2022-10-11T23:54:58.242Z,3.20
2022-10-11T23:57:43.179Z,2.90
